Vancouver Fireboat 1 — VFB1 — position and weather

sailwx.info

Track history (hours):
 
Tides and Currents Weather Stations Pressure Air Temp Water Temp Dewpoint Dewpoint Depression Visibility Wind Speed Wind Dir Waves Ship Positions

Vancouver Fireboat 1

Last reported at 2018-Apr-24 18:36 UTC. Time now 2018-Apr-26 18:45 UTC.
Position N 45°37' W 122°38'.

Type: . MMSI: 338166967.

Date/timePositionNaut miles runAvg speedWind from/ knotsBaromVisibWave heightAir tempDewpointWater temp
2018-Apr-24 18:36N 45°37' W 122°38'0 4.1
2018-Apr-24 18:30N 45°36' W 122°37'1 1.2
2018-Apr-24 18:00N 45°37' W 122°38'4 6.4
2018-Apr-24 17:21N 45°39' W 122°43'1 2.9
2018-Apr-24 17:00N 45°38' W 122°44'3 5.8
2018-Apr-24 16:30N 45°36' W 122°40'1 0.1
2018-Apr-23 18:42N 45°37' W 122°38'1 4.6
2018-Apr-23 18:30N 45°37' W 122°40'1 2.5
2018-Apr-23 18:00N 45°36' W 122°38'1220.3
2018-Apr-23 17:25N 45°34' W 122°21'7 5.1
2018-Apr-23 15:59N 45°35' W 122°32'4 8.8
2018-Apr-23 15:30N 45°36' W 122°38'  
2018-Apr-16 20:44N 45°37' W 122°38'410.1
2018-Apr-16 20:21N 45°38' W 122°43'2 1.7
2018-Apr-16 19:18N 45°37' W 122°41'1 4.6
2018-Apr-16 19:00N 45°37' W 122°39'  
Track history (hours):
 
Tides and Currents Weather Stations Pressure Air Temp Water Temp Dewpoint Dewpoint Depression Visibility Wind Speed Wind Dir Waves Ship Positions

Vancouver Fireboat 1

Last reported at 2018-Apr-24 18:36 UTC. Time now 2018-Apr-26 18:45 UTC.
Position N 45°37' W 122°38'.

Type: . MMSI: 338166967.

Date/timePositionNaut miles runAvg speedWind from/ knotsBaromVisibWave heightAir tempDewpointWater temp
2018-Apr-24 18:36N 45°37' W 122°38'0 4.1
2018-Apr-24 18:30N 45°36' W 122°37'1 1.2
2018-Apr-24 18:00N 45°37' W 122°38'4 6.4
2018-Apr-24 17:21N 45°39' W 122°43'1 2.9
2018-Apr-24 17:00N 45°38' W 122°44'3 5.8
2018-Apr-24 16:30N 45°36' W 122°40'1 0.1
2018-Apr-23 18:42N 45°37' W 122°38'1 4.6
2018-Apr-23 18:30N 45°37' W 122°40'1 2.5
2018-Apr-23 18:00N 45°36' W 122°38'1220.3
2018-Apr-23 17:25N 45°34' W 122°21'7 5.1
2018-Apr-23 15:59N 45°35' W 122°32'4 8.8
2018-Apr-23 15:30N 45°36' W 122°38'  
2018-Apr-16 20:44N 45°37' W 122°38'410.1
2018-Apr-16 20:21N 45°38' W 122°43'2 1.7
2018-Apr-16 19:18N 45°37' W 122°41'1 4.6
2018-Apr-16 19:00N 45°37' W 122°39'  

Dump ship's entire track history